createdAt,value
2019-05-10T00:00:02.388Z,100174.23
2019-05-10T00:02:36.519Z,100168.98
2019-05-10T00:05:08.777Z,100158.53
2019-05-10T00:07:40.979Z,100174.31
2019-05-10T00:10:13.237Z,100178.34
2019-05-10T00:12:45.486Z,100186.88
2019-05-10T00:15:18.810Z,100201.92
2019-05-10T00:17:51.069Z,100212.28
2019-05-10T00:20:23.372Z,100223.23
2019-05-10T00:22:57.724Z,100226.33
2019-05-10T00:25:30.000Z,100239.63
2019-05-10T00:28:02.288Z,100240.52
2019-05-10T00:30:34.544Z,100243.64
2019-05-10T00:33:07.828Z,100248.11
2019-05-10T00:35:40.103Z,100254.52
2019-05-10T00:38:12.323Z,100258.33
2019-05-10T00:40:44.537Z,100262.24
2019-05-10T00:43:16.781Z,100266.30
2019-05-10T00:45:49.007Z,100273.24
2019-05-10T00:48:21.243Z,100269.38
2019-05-10T00:50:53.446Z,100267.19
2019-05-10T00:53:25.672Z,100259.47
2019-05-10T00:55:57.919Z,100268.27
2019-05-10T00:58:30.150Z,100274.47
2019-05-10T01:01:02.427Z,100277.22
2019-05-10T01:03:34.640Z,100276.91
2019-05-10T01:06:06.891Z,100284.72
2019-05-10T01:08:39.110Z,100287.42
2019-05-10T01:11:11.346Z,100288.36
2019-05-10T01:13:45.183Z,100292.75
2019-05-10T01:16:17.406Z,100291.86
2019-05-10T01:18:49.640Z,100296.23
2019-05-10T01:21:21.883Z,100296.20
2019-05-10T01:23:54.115Z,100295.20
2019-05-10T01:26:26.656Z,100289.42
2019-05-10T01:28:58.862Z,100281.03
2019-05-10T01:31:31.109Z,100298.31
2019-05-10T01:34:03.368Z,100317.91
2019-05-10T01:36:35.549Z,100320.26
2019-05-10T01:39:07.783Z,100332.42
2019-05-10T01:41:42.274Z,100337.47
2019-05-10T01:44:14.513Z,100342.59
2019-05-10T01:46:46.733Z,100350.82
2019-05-10T01:49:18.947Z,100352.81
2019-05-10T01:51:51.247Z,100357.03
2019-05-10T01:54:23.681Z,100361.72
2019-05-10T01:56:55.955Z,100361.66
2019-05-10T01:59:28.157Z,100371.50
2019-05-10T02:02:00.412Z,100378.42
2019-05-10T02:04:32.704Z,100377.53
2019-05-10T02:07:04.907Z,100382.87
2019-05-10T02:09:37.171Z,100382.45
2019-05-10T02:12:09.395Z,100381.94
2019-05-10T02:14:41.597Z,100387.30
2019-05-10T02:17:13.844Z,100382.26
2019-05-10T02:19:46.065Z,100389.56
2019-05-10T02:22:18.285Z,100396.38
2019-05-10T02:24:50.527Z,100411.61
2019-05-10T02:27:23.841Z,100417.22
2019-05-10T02:29:56.099Z,100419.84
2019-05-10T02:32:28.414Z,100427.18
2019-05-10T02:35:00.627Z,100431.05
2019-05-10T02:37:32.839Z,100433.87
2019-05-10T02:40:05.067Z,100429.55
2019-05-10T02:42:37.336Z,100438.09
2019-05-10T02:45:09.547Z,100435.77
2019-05-10T02:47:41.750Z,100442.71
2019-05-10T02:50:14.023Z,100441.16
2019-05-10T02:52:46.251Z,100447.44
2019-05-10T02:55:20.201Z,100449.11
2019-05-10T02:57:52.596Z,100444.78
2019-05-10T03:00:24.860Z,100453.20
2019-05-10T03:02:57.112Z,100458.83
2019-05-10T03:05:29.334Z,100465.75
2019-05-10T03:08:01.559Z,100470.55
2019-05-10T03:10:35.311Z,100469.00
2019-05-10T03:13:07.520Z,100470.91
2019-05-10T03:15:39.798Z,100473.51
2019-05-10T03:18:11.835Z,100479.27
2019-05-10T03:20:44.045Z,100478.67
2019-05-10T03:23:16.300Z,100479.42
2019-05-10T03:25:49.599Z,100488.05
2019-05-10T03:28:21.896Z,100490.68
2019-05-10T03:30:54.119Z,100487.36
2019-05-10T03:33:26.370Z,100492.56
2019-05-10T03:35:58.652Z,100501.09
2019-05-10T03:38:30.895Z,100509.74
2019-05-10T03:41:03.120Z,100510.51
2019-05-10T03:43:35.363Z,100507.41
2019-05-10T03:46:07.605Z,100513.41
2019-05-10T03:48:40.820Z,100518.42
2019-05-10T03:51:13.037Z,100524.20
2019-05-10T03:53:45.266Z,100524.68
2019-05-10T03:56:17.539Z,100523.66
2019-05-10T03:58:49.828Z,100530.73
2019-05-10T04:01:22.030Z,100526.33
2019-05-10T04:03:54.282Z,100531.82
2019-05-10T04:06:26.577Z,100531.35
2019-05-10T04:08:58.828Z,100532.58
2019-05-10T04:11:31.096Z,100541.36
2019-05-10T04:14:03.329Z,100544.45
2019-05-10T04:16:35.563Z,100544.88
2019-05-10T04:19:07.800Z,100556.65
2019-05-10T04:21:40.007Z,100563.38
2019-05-10T04:24:12.276Z,100556.42
2019-05-10T04:26:44.479Z,100563.98
2019-05-10T04:29:16.699Z,100566.71
2019-05-10T04:31:48.991Z,100568.91
2019-05-10T04:34:21.212Z,100575.00
2019-05-10T04:36:53.446Z,100579.00
2019-05-10T04:39:25.661Z,100584.31
2019-05-10T04:42:00.139Z,100584.88
2019-05-10T04:44:32.365Z,100590.84
2019-05-10T04:47:04.590Z,100597.79
2019-05-10T04:49:36.799Z,100602.93
2019-05-10T04:52:09.053Z,100605.17
2019-05-10T04:54:41.278Z,100605.94
2019-05-10T04:57:13.581Z,100608.20
2019-05-10T04:59:45.789Z,100608.98
2019-05-10T05:02:22.064Z,100608.96
2019-05-10T05:04:52.059Z,100614.39
2019-05-10T05:07:24.707Z,100611.70
2019-05-10T05:09:57.328Z,100611.77
2019-05-10T05:12:29.608Z,100616.11
2019-05-10T05:15:01.965Z,100616.81
2019-05-10T05:17:34.283Z,100622.05
2019-05-10T05:20:06.513Z,100623.75
2019-05-10T05:22:38.785Z,100631.18
2019-05-10T05:25:12.569Z,100634.03
2019-05-10T05:27:44.912Z,100634.46
2019-05-10T05:30:17.131Z,100635.79
2019-05-10T05:32:49.369Z,100630.97
2019-05-10T05:35:21.632Z,100639.42
2019-05-10T05:37:53.841Z,100642.08
2019-05-10T05:40:26.066Z,100643.99
2019-05-10T05:43:02.792Z,100647.67
2019-05-10T05:45:33.927Z,100645.62
2019-05-10T05:48:06.136Z,100651.91
2019-05-10T05:50:38.371Z,100652.94
2019-05-10T05:53:13.186Z,100656.86
2019-05-10T05:55:45.422Z,100664.69
2019-05-10T05:58:26.573Z,100661.84
2019-05-10T06:00:51.739Z,100672.68
2019-05-10T06:03:28.127Z,100678.73
2019-05-10T06:05:57.907Z,100684.69
2019-05-10T06:08:30.470Z,100688.89
2019-05-10T06:11:02.751Z,100694.42
2019-05-10T06:13:34.979Z,100696.66
2019-05-10T06:16:12.749Z,100702.48
2019-05-10T06:18:41.544Z,100709.24
2019-05-10T06:21:17.982Z,100711.45
2019-05-10T06:23:49.048Z,100718.10
2019-05-10T06:26:28.104Z,100728.13
2019-05-10T06:28:59.480Z,100726.83
2019-05-10T06:31:29.092Z,100731.59
2019-05-10T06:34:01.438Z,100736.99
2019-05-10T06:36:33.653Z,100742.22
2019-05-10T06:39:05.978Z,100753.73
2019-05-10T06:41:38.334Z,100748.50
2019-05-10T06:44:10.518Z,100759.97
2019-05-10T06:46:42.762Z,100764.98
2019-05-10T06:49:14.978Z,100767.77
2019-05-10T06:51:48.953Z,100772.90
2019-05-10T06:54:21.113Z,100768.81
2019-05-10T06:56:53.444Z,100771.70
2019-05-10T06:59:26.375Z,100775.25
2019-05-10T07:01:58.709Z,100777.46
2019-05-10T07:04:36.052Z,100782.89
2019-05-10T07:07:10.388Z,100795.12
2019-05-10T07:10:01.564Z,100795.89
2019-05-10T07:12:15.314Z,100796.19
2019-05-10T07:14:47.021Z,100798.97
2019-05-10T07:17:19.262Z,100804.07
2019-05-10T07:19:54.760Z,100798.42
2019-05-10T07:22:26.792Z,100804.45
2019-05-10T07:25:04.237Z,100802.64
2019-05-10T07:27:36.544Z,100811.34
2019-05-10T07:30:07.359Z,100806.90
2019-05-10T07:32:39.627Z,100814.09
2019-05-10T07:35:11.813Z,100823.47
2019-05-10T07:37:47.611Z,100824.19
2019-05-10T07:40:18.296Z,100818.20
2019-05-10T07:42:50.518Z,100825.59
2019-05-10T07:45:25.514Z,100825.16
2019-05-10T07:47:57.006Z,100830.40
2019-05-10T07:50:29.225Z,100822.72
2019-05-10T07:53:01.515Z,100824.16
2019-05-10T07:55:33.742Z,100825.05
2019-05-10T07:58:07.064Z,100831.81
2019-05-10T08:00:44.590Z,100825.51
2019-05-10T08:03:17.761Z,100828.67
2019-05-10T08:05:55.245Z,100835.14
2019-05-10T08:08:21.475Z,100835.33
2019-05-10T08:10:53.734Z,100843.05
2019-05-10T08:13:28.215Z,100851.30
2019-05-10T08:15:59.954Z,100853.80
2019-05-10T08:18:33.434Z,100856.06
2019-05-10T08:21:18.794Z,100866.12
2019-05-10T08:23:41.097Z,100870.38
2019-05-10T08:26:19.700Z,100864.17
2019-05-10T08:28:47.523Z,100874.42
2019-05-10T08:31:21.801Z,100872.65
2019-05-10T08:33:58.705Z,100880.98
2019-05-10T08:36:27.673Z,100884.88
2019-05-10T08:39:07.727Z,100884.17
2019-05-10T08:41:35.350Z,100887.53
2019-05-10T08:44:16.623Z,100888.48
2019-05-10T08:46:44.330Z,100894.22
2019-05-10T08:49:15.392Z,100895.01
2019-05-10T08:51:49.472Z,100894.09
2019-05-10T08:54:22.489Z,100903.28
2019-05-10T08:57:01.273Z,100905.24
2019-05-10T08:59:30.886Z,100908.57
2019-05-10T09:02:04.476Z,100908.88
2019-05-10T09:04:45.402Z,100903.02
2019-05-10T09:07:11.868Z,100907.00
2019-05-10T09:09:49.647Z,100914.45
2019-05-10T09:12:18.432Z,100922.63
2019-05-10T09:14:57.311Z,100920.16
2019-05-10T09:17:28.275Z,100925.52
2019-05-10T09:19:59.604Z,100927.69
2019-05-10T09:22:34.125Z,100930.53
2019-05-10T09:25:05.746Z,100928.61
2019-05-10T09:27:37.997Z,100942.84
2019-05-10T09:30:14.052Z,100933.49
2019-05-10T09:32:44.545Z,100937.84
2019-05-10T09:35:16.804Z,100947.44
2019-05-10T09:37:56.733Z,100953.17
2019-05-10T09:40:23.036Z,100953.58
2019-05-10T09:42:59.405Z,100956.57
2019-05-10T09:45:29.186Z,100960.05
2019-05-10T09:48:02.500Z,100965.44
2019-05-10T09:50:41.036Z,100961.03
2019-05-10T09:53:10.267Z,100965.85
2019-05-10T09:55:45.506Z,100967.76
2019-05-10T09:58:21.686Z,100971.11
2019-05-10T10:00:51.150Z,100963.78
2019-05-10T10:03:23.458Z,100968.03
2019-05-10T10:06:05.643Z,100964.56
2019-05-10T10:08:29.597Z,100973.42
2019-05-10T10:11:13.945Z,100968.16
2019-05-10T10:13:40.818Z,100972.88
2019-05-10T10:16:14.567Z,100971.49
2019-05-10T10:18:43.623Z,100972.80
2019-05-10T10:21:18.954Z,100982.48
2019-05-10T10:23:49.864Z,100975.61
2019-05-10T10:26:22.615Z,100975.22
2019-05-10T10:28:59.545Z,100982.63
2019-05-10T10:31:33.325Z,100984.97
2019-05-10T10:34:03.882Z,100988.84
2019-05-10T10:36:40.423Z,100986.73
2019-05-10T10:39:10.074Z,100987.36
2019-05-10T10:41:42.397Z,100979.91
2019-05-10T10:44:14.617Z,100981.91
2019-05-10T10:46:48.067Z,100988.25
2019-05-10T10:49:23.193Z,100992.16
2019-05-10T10:51:57.399Z,100992.53
2019-05-10T10:54:35.863Z,100990.38
2019-05-10T10:57:03.463Z,100986.19
2019-05-10T10:59:37.388Z,100979.73
2019-05-10T11:02:32.710Z,100990.22
2019-05-10T11:04:46.554Z,100989.08
2019-05-10T11:07:18.886Z,100993.47
2019-05-10T11:09:53.667Z,100990.02
2019-05-10T11:12:25.025Z,100990.55
2019-05-10T11:14:57.325Z,100985.63
2019-05-10T11:17:30.814Z,100986.31
2019-05-10T11:20:03.032Z,100987.21
2019-05-10T11:22:35.254Z,100981.11
2019-05-10T11:25:10.427Z,100978.64
2019-05-10T11:27:41.774Z,100980.50
2019-05-10T11:30:14.136Z,100990.61
2019-05-10T11:32:46.427Z,100986.21
2019-05-10T11:35:28.486Z,100984.89
2019-05-10T11:37:53.689Z,100984.42
2019-05-10T11:40:30.692Z,100995.77
2019-05-10T11:43:01.492Z,100993.88
2019-05-10T11:45:35.292Z,100994.19
2019-05-10T11:48:07.807Z,100991.50
2019-05-10T11:50:41.075Z,100996.23
2019-05-10T11:53:17.408Z,100997.41
2019-05-10T11:55:47.505Z,100998.23
2019-05-10T11:58:23.505Z,100997.91
2019-05-10T12:00:59.267Z,101004.94
2019-05-10T12:03:27.525Z,101006.42
2019-05-10T12:06:06.259Z,101003.18
2019-05-10T12:08:34.740Z,101005.11
2019-05-10T12:11:18.079Z,101003.81
2019-05-10T12:13:40.904Z,101011.45
2019-05-10T12:16:17.009Z,101010.70
2019-05-10T12:19:02.333Z,101013.73
2019-05-10T12:21:22.475Z,101010.84
2019-05-10T12:23:56.171Z,101012.67
2019-05-10T12:29:12.391Z,101018.90
2019-05-10T12:31:36.509Z,101020.77
2019-05-10T12:34:13.952Z,101019.16
2019-05-10T12:36:44.676Z,101022.70
2019-05-10T12:39:18.027Z,101026.55
2019-05-10T12:41:52.971Z,101024.88
2019-05-10T12:44:24.206Z,101024.36
2019-05-10T12:46:56.731Z,101028.91
2019-05-10T12:49:31.417Z,101026.69
2019-05-10T12:52:03.397Z,101021.41
2019-05-10T12:54:35.868Z,101024.03
2019-05-10T12:57:08.277Z,101030.45
2019-05-10T12:59:40.512Z,101033.86
2019-05-10T13:02:13.205Z,101038.06
2019-05-10T13:04:47.090Z,101033.34
2019-05-10T13:07:19.578Z,101033.34
2019-05-10T13:10:02.630Z,101033.27
2019-05-10T13:12:25.738Z,101039.67
2019-05-10T13:14:59.952Z,101046.85
2019-05-10T13:17:32.220Z,101048.68
2019-05-10T13:20:05.621Z,101050.42
2019-05-10T13:22:39.459Z,101049.52
2019-05-10T13:25:11.947Z,101058.72
2019-05-10T13:27:45.084Z,101064.82
2019-05-10T13:30:17.332Z,101067.86
2019-05-10T13:32:52.820Z,101069.16
2019-05-10T13:35:23.541Z,101076.17
2019-05-10T13:37:56.997Z,101070.61
2019-05-10T13:40:29.710Z,101071.41
2019-05-10T13:43:03.113Z,101071.39
2019-05-10T13:45:37.838Z,101071.84
2019-05-10T13:48:09.384Z,101073.75
2019-05-10T13:50:41.602Z,101079.61
2019-05-10T13:53:21.327Z,101082.48
2019-05-10T13:55:47.751Z,101081.70
2019-05-10T13:58:20.042Z,101083.86
2019-05-10T14:00:52.243Z,101092.77
2019-05-10T14:03:24.453Z,101093.61
2019-05-10T14:05:56.877Z,101098.56
2019-05-10T14:08:29.141Z,101100.98
2019-05-10T14:11:03.278Z,101104.82
2019-05-10T14:13:41.487Z,101098.01
2019-05-10T14:16:18.888Z,101090.66
2019-05-10T14:18:44.819Z,101096.96
2019-05-10T14:21:17.007Z,101094.80
2019-05-10T14:23:49.304Z,101099.94
2019-05-10T14:26:22.673Z,101098.53
2019-05-10T14:28:55.034Z,101087.45
2019-05-10T14:31:27.230Z,101097.15
2019-05-10T14:34:14.607Z,101093.76
2019-05-10T14:36:34.115Z,101094.35
2019-05-10T14:39:07.727Z,101086.94
2019-05-10T14:41:40.205Z,101096.58
2019-05-10T14:44:12.617Z,101090.28
2019-05-10T14:46:44.894Z,101086.23
2019-05-10T14:49:17.190Z,101086.85
2019-05-10T14:51:59.072Z,101088.45
2019-05-10T14:54:24.710Z,101092.16
2019-05-10T14:56:56.956Z,101095.58
2019-05-10T14:59:33.128Z,101099.12
2019-05-10T15:02:05.370Z,101095.11
2019-05-10T15:04:46.844Z,101094.25
2019-05-10T15:07:14.252Z,101094.95
2019-05-10T15:09:45.767Z,101101.64
2019-05-10T15:12:22.624Z,101097.20
2019-05-10T15:14:51.981Z,101094.68
2019-05-10T15:17:24.234Z,101091.77
2019-05-10T15:19:59.774Z,101094.45
2019-05-10T15:22:30.535Z,101085.72
2019-05-10T15:25:03.823Z,101095.81
2019-05-10T15:27:36.062Z,101096.42
2019-05-10T15:30:09.562Z,101094.81
2019-05-10T15:32:41.776Z,101092.38
2019-05-10T15:35:14.121Z,101088.05
2019-05-10T15:37:48.278Z,101089.02
2019-05-10T15:40:20.276Z,101084.55
2019-05-10T15:42:52.497Z,101089.66
2019-05-10T15:45:24.971Z,101091.13
2019-05-10T15:48:02.455Z,101082.25
2019-05-10T15:50:32.537Z,101084.81
2019-05-10T15:53:05.153Z,101081.17
2019-05-10T15:55:37.217Z,101088.73
2019-05-10T15:58:09.697Z,101090.48
2019-05-10T16:00:41.994Z,101090.63
2019-05-10T16:03:14.187Z,101089.23
2019-05-10T16:05:59.980Z,101080.53
2019-05-10T16:08:24.040Z,101090.59
2019-05-10T16:10:54.327Z,101092.88
2019-05-10T16:13:26.615Z,101089.80
2019-05-10T16:15:59.545Z,101082.81
2019-05-10T16:18:33.343Z,101087.77
2019-05-10T16:21:09.683Z,101078.27
2019-05-10T16:23:46.657Z,101076.80
2019-05-10T16:26:17.551Z,101082.66
2019-05-10T16:28:53.047Z,101081.72
2019-05-10T16:31:24.153Z,101083.02
2019-05-10T16:33:56.395Z,101087.03
2019-05-10T16:36:30.138Z,101084.08
2019-05-10T16:39:02.594Z,101080.23
2019-05-10T16:41:35.497Z,101075.41
2019-05-10T16:44:07.713Z,101076.22
2019-05-10T16:46:39.996Z,101075.82
2019-05-10T16:49:15.582Z,101074.55
2019-05-10T16:51:47.683Z,101072.23
2019-05-10T16:54:25.791Z,101077.67
2019-05-10T16:56:59.426Z,101070.45
2019-05-10T16:59:29.752Z,101071.37
2019-05-10T17:02:04.652Z,101071.16
2019-05-10T17:04:37.454Z,101071.31
2019-05-10T17:07:13.065Z,101068.53
2019-05-10T17:09:43.628Z,101074.34
2019-05-10T17:12:15.916Z,101077.05
2019-05-10T17:14:50.623Z,101074.13
2019-05-10T17:17:22.341Z,101072.84
2019-05-10T17:19:54.561Z,101070.30
2019-05-10T17:22:26.810Z,101071.14
2019-05-10T17:25:03.298Z,101069.09
2019-05-10T17:27:33.145Z,101063.05
2019-05-10T17:30:05.385Z,101071.08
2019-05-10T17:32:37.685Z,101070.66
2019-05-10T17:35:10.163Z,101067.59
2019-05-10T17:37:42.393Z,101070.09
2019-05-10T17:40:14.639Z,101076.70
2019-05-10T17:42:46.873Z,101069.16
2019-05-10T17:45:19.133Z,101067.25
2019-05-10T17:47:51.705Z,101074.90
2019-05-10T17:50:23.907Z,101067.61
2019-05-10T17:52:56.151Z,101070.53
2019-05-10T17:55:28.399Z,101072.50
2019-05-10T17:58:00.733Z,101062.58
2019-05-10T18:00:33.065Z,101068.77
2019-05-10T18:03:05.337Z,101070.06
2019-05-10T18:05:41.132Z,101071.89
2019-05-10T18:08:11.499Z,101070.77
2019-05-10T18:10:43.714Z,101073.58
2019-05-10T18:13:15.958Z,101074.31
2019-05-10T18:15:48.230Z,101080.23
2019-05-10T18:18:20.485Z,101077.74
2019-05-10T18:20:52.739Z,101088.02
2019-05-10T18:23:24.971Z,101082.94
2019-05-10T18:26:00.210Z,101087.55
2019-05-10T18:28:32.607Z,101087.78
2019-05-10T18:31:04.843Z,101096.77
2019-05-10T18:33:37.091Z,101105.21
2019-05-10T18:36:11.110Z,101105.79
2019-05-10T18:38:43.479Z,101112.07
2019-05-10T18:41:15.706Z,101115.78
2019-05-10T18:43:49.939Z,101123.41
2019-05-10T18:46:24.565Z,101120.03
2019-05-10T18:48:56.086Z,101112.81
2019-05-10T18:51:28.347Z,101107.85
2019-05-10T18:54:00.571Z,101101.92
2019-05-10T18:56:33.260Z,101101.78
2019-05-10T18:59:07.522Z,101104.70
2019-05-10T19:01:40.697Z,101113.30
2019-05-10T19:04:15.583Z,101121.38
2019-05-10T19:06:49.910Z,101120.29
2019-05-10T19:09:20.977Z,101127.54
2019-05-10T19:11:53.439Z,101123.49
2019-05-10T19:14:29.748Z,101121.63
2019-05-10T19:17:04.015Z,101131.47
2019-05-10T19:19:37.455Z,101129.54
2019-05-10T19:22:08.908Z,101127.25
2019-05-10T19:24:41.813Z,101124.87
2019-05-10T19:27:14.191Z,101128.16
2019-05-10T19:29:47.977Z,101126.21
2019-05-10T19:32:20.607Z,101129.98
2019-05-10T19:34:57.169Z,101135.09
2019-05-10T19:37:33.372Z,101133.62
2019-05-10T19:40:01.203Z,101138.77
2019-05-10T19:42:37.385Z,101136.91
2019-05-10T19:45:07.597Z,101143.84
2019-05-10T19:47:39.868Z,101143.66
2019-05-10T19:50:12.085Z,101141.38
2019-05-10T19:52:44.371Z,101148.75
2019-05-10T19:55:19.350Z,101149.70
2019-05-10T19:57:54.669Z,101147.52
2019-05-10T20:00:25.167Z,101142.69
2019-05-10T20:02:57.394Z,101160.00
2019-05-10T20:05:29.601Z,101155.86
2019-05-10T20:08:02.126Z,101154.41
2019-05-10T20:10:34.832Z,101161.27
2019-05-10T20:13:07.279Z,101158.96
2019-05-10T20:15:39.492Z,101160.45
2019-05-10T20:18:11.820Z,101153.66
2019-05-10T20:20:44.218Z,101145.53
2019-05-10T20:23:16.486Z,101148.77
2019-05-10T20:25:48.681Z,101149.91
2019-05-10T20:28:20.960Z,101156.73
2019-05-10T20:30:54.251Z,101150.86
2019-05-10T20:33:26.677Z,101148.09
2019-05-10T20:35:58.991Z,101147.59
2019-05-10T20:38:31.406Z,101150.04
2019-05-10T20:41:03.696Z,101146.38
2019-05-10T20:43:35.908Z,101149.37
2019-05-10T20:46:11.060Z,101150.77
2019-05-10T20:48:42.060Z,101160.50
2019-05-10T20:51:14.463Z,101153.16
2019-05-10T20:53:48.221Z,101153.79
2019-05-10T20:56:20.662Z,101151.59
2019-05-10T20:58:52.852Z,101142.81
2019-05-10T21:01:25.137Z,101137.59
2019-05-10T21:03:57.335Z,101137.98
2019-05-10T21:06:29.654Z,101131.30
2019-05-10T21:09:01.946Z,101147.27
2019-05-10T21:11:35.774Z,101142.44
2019-05-10T21:14:08.115Z,101139.36
2019-05-10T21:16:40.339Z,101131.85
2019-05-10T21:19:12.528Z,101136.97
2019-05-10T21:21:44.785Z,101135.89
2019-05-10T21:24:19.007Z,101140.12
2019-05-10T21:26:51.257Z,101130.83
2019-05-10T21:29:23.552Z,101127.97
2019-05-10T21:31:55.846Z,101128.70
2019-05-10T21:34:28.066Z,101129.59
2019-05-10T21:37:00.346Z,101133.47
2019-05-10T21:39:32.738Z,101133.30
2019-05-10T21:42:05.052Z,101131.52
2019-05-10T21:44:37.315Z,101132.52
2019-05-10T21:47:09.596Z,101130.06
2019-05-10T21:49:41.813Z,101131.85
2019-05-10T21:52:14.141Z,101132.27
2019-05-10T21:54:46.539Z,101126.66
2019-05-10T21:57:20.174Z,101123.55
2019-05-10T21:59:53.260Z,101124.03
2019-05-10T22:02:25.411Z,101126.09
2019-05-10T22:04:57.629Z,101124.66
2019-05-10T22:07:29.853Z,101122.30
2019-05-10T22:10:02.088Z,101120.91
2019-05-10T22:12:34.311Z,101115.59
2019-05-10T22:15:06.541Z,101115.59
2019-05-10T22:17:39.091Z,101124.02
2019-05-10T22:20:11.322Z,101111.94
2019-05-10T22:22:43.566Z,101114.48
2019-05-10T22:25:15.781Z,101115.30
2019-05-10T22:27:48.009Z,101118.70
2019-05-10T22:30:20.392Z,101123.31
2019-05-10T22:32:52.587Z,101110.70
2019-05-10T22:35:25.813Z,101105.50
2019-05-10T22:37:58.024Z,101111.98
2019-05-10T22:40:30.270Z,101107.22
2019-05-10T22:43:02.464Z,101112.89
2019-05-10T22:45:34.684Z,101117.03
2019-05-10T22:48:07.046Z,101117.81
2019-05-10T22:50:39.250Z,101113.22
2019-05-10T22:53:13.502Z,101112.63
2019-05-10T22:55:45.728Z,101108.20
2019-05-10T22:58:17.978Z,101112.22
2019-05-10T23:00:50.212Z,101107.20
2019-05-10T23:03:24.711Z,101105.31
2019-05-10T23:05:56.447Z,101107.33
2019-05-10T23:08:28.740Z,101103.69
2019-05-10T23:11:00.968Z,101102.72
2019-05-10T23:13:33.181Z,101102.31
2019-05-10T23:16:05.421Z,101096.10
2019-05-10T23:18:37.704Z,101087.37
2019-05-10T23:21:09.987Z,101089.38
2019-05-10T23:23:42.222Z,101086.66
2019-05-10T23:26:14.481Z,101089.27
2019-05-10T23:28:46.689Z,101092.62
2019-05-10T23:31:21.233Z,101095.06
2019-05-10T23:33:53.479Z,101097.07
2019-05-10T23:36:25.739Z,101102.98
2019-05-10T23:38:58.015Z,101098.84
2019-05-10T23:41:31.236Z,101106.98
2019-05-10T23:44:03.589Z,101103.19
2019-05-10T23:46:35.834Z,101102.14
2019-05-10T23:49:08.043Z,101103.66
2019-05-10T23:51:43.329Z,101103.61
2019-05-10T23:54:15.492Z,101106.95
2019-05-10T23:56:47.733Z,101110.86
2019-05-10T23:59:19.976Z,101104.23
